METAR AND TAF INFORMATION
METAR FOR LFBP
ADDS - METARS form results

(1634 UTC 20 September 2020)
Data provider http://aviationweather.gov/metar/data/
 
METAR text: LFBP 201630Z AUTO 29011KT 260V320 CAVOK 22/15 Q1015 TEMPO 4000 SHRA BKN008 BKN020TCU
Conditions at: LFBP (PONT-LONG-UZEIN/, FR) observed 1630 UTC 20 September 2020
Temperature: 22.0°C (72°F)
Dewpoint: 15.0°C (59°F) [RH = 65%]
Pressure (altimeter): 29.97 inches Hg (1015.0 mb)
Winds: from the WNW (290 degrees) at 13 MPH (11 knots; 5.7 m/s)
Visibility: 6 or more miles (10+ km)
Ceiling: ceiling and visibility are OK
Clouds: unknown
Weather: no significant weather observed at this time

METAR text: LFBP 201600Z AUTO 30013KT 9999 FEW035 23/15 Q1015 TEMPO 4000 SHRA BKN008 BKN020TCU
Conditions at: LFBP (PONT-LONG-UZEIN/, FR) observed 1600 UTC 20 September 2020
Temperature: 23.0°C (73°F)
Dewpoint: 15.0°C (59°F) [RH = 61%]
Pressure (altimeter): 29.97 inches Hg (1015.0 mb)
Winds: from the WNW (300 degrees) at 15 MPH (13 knots; 6.7 m/s)
Visibility: 6 or more miles (10+ km)
Ceiling: at least 12,000 feet AGL
Clouds: few clouds at 3500 feet AGL
Weather: no significant weather observed at this time

Forecast for: LFBP (PONT-LONG-UZEIN/, FR)
Text: TAF LFBP 201100Z 2012/2112 27008KT 9999 BKN050
Forecast period: 1200 UTC 20 September 2020 to 1200 UTC 21 September 2020
Forecast type: FROM: standard forecast or significant change
Winds: from the W (270 degrees) at 9 MPH (8 knots; 4.1 m/s)
Visibility: 6 or more miles (10+ km)
Ceiling: 5000 feet AGL
Clouds: broken clouds at 5000 feet AGL
Weather: no significant weather forecast for this period
Text: PROB30
Forecast period: 1600 UTC 20 September 2020 to 1200 UTC 21 September 2020
Forecast type: TEMPORARY: The following changes expected for less than half the time period
Visibility: 2.49 miles (4.01 km)
Ceiling: 800 feet AGL
Clouds: broken clouds at 800 feet AGL
broken clouds at 2000 feet AGL
Weather: SHRA  (rain showers)

 AIRPORT MAP

 RUNWAY INFORMATION
Runway 13 Runway length 8202 ft Runway width 148 ft
Runway elevation 581 ft Runway displaced threshold 0 ft Runway heading 125
Runway 31 Runway length 8202 ft Runway width 148 ft
Runway elevation 616 ft Runway displaced threshold 0 ft Runway heading 305

 AIRPORT FREQUENCIES
Type APP Name PYRENEES A Frequency 121.175 MHZ
Type ATIS Name ATIS Frequency 128.475 MHZ
Type GND Name GND Frequency 121.75 MHZ
Type TWR Name TWR Frequency 124.15 MHZ

 AIRPORT NEAR NAVIGATION AIDS